Meteo Giornale » Osservazioni meteo Stati Uniti (USA) » Owensboro-Daviess
ore: 23:56 - Osservazioni Meteo Owensboro-Daviess
Lat. 37° 44' N Lon. 87° 10' W Alt. 124 metri s.l.m.
24 °C
Sereno
Temp. 24 Ore
22 °C
36 °C
Nord
0 Km/h
Dew point 22 °C
Umidità 88 %
Visibilità 11 Km
Il sole sorge alle ore 06:19
Il sole tramonta alle ore 19:18
| Data e Ora | Cielo e Fenomeni | T °C | DP °C | Um. % | Pres. hPa | Vis. km | Vento km/h | |
|---|---|---|---|---|---|---|---|---|
| Ieri h: 23:56 | Sereno | 24 | 22 | 88 | 1018 | 11 | N 0 | |
| Ieri h: 22:56 | Sereno | 26 | 23 | 83 | 1018 | 10 | N 0 | |
| Ieri h: 21:56 | Sereno | 26 | 22 | 78 | 1018 | 10 | N 0 | |
| Ieri h: 20:56 | Sereno | 28 | 21 | 65 | 1017 | 10 | N 0 | |
| Ieri h: 19:56 | Sereno | 30 | 21 | 58 | 1017 | 10 | N 5.5 | |
| Ieri h: 18:56 | Sereno | 32 | 21 | 52 | 1016 | 10 | O/SO 9.3 | |
| Ieri h: 17:56 | Poco Nuvoloso | 34 | 20 | 43 | 1017 | 10 | O/SO 16.7 | |
| Ieri h: 16:56 | Nuvoloso | 36 | 20 | 39 | 1017 | 10 | S/SO 14.8 | |
| Ieri h: 15:56 | Nuvoloso | 35 | 21 | 44 | 1017 | 10 | S/SO 13 | |
| Ieri h: 14:56 | Nuvoloso | 36 | 21 | 41 | 1018 | 10 | S/SO 13 | |
| Ieri h: 13:56 | Poco Nuvoloso | 34 | 21 | 46 | 1018 | 10 | N 9.3 | |
| Ieri h: 12:56 | Poco Nuvoloso | 34 | 22 | 49 | 1019 | 10 | O/SO 20.3 | |
| Ieri h: 11:56 | Sereno | 33 | 22 | 52 | 1019 | 10 | O 18.5 | |
| Ieri h: 10:56 | Sereno | 32 | 22 | 55 | 1020 | 10 | O/SO 22.2 | |
| Ieri h: 09:56 | Sereno | 31 | 23 | 62 | 1020 | 10 | O/SO 16.7 | |
| Ieri h: 08:56 | Sereno | 28 | 23 | 74 | 1019 | 10 | SO 14.8 | |
| Ieri h: 07:56 | Sereno | 26 | 23 | 83 | 1019 | 10 | S 9.3 | |
| Ieri h: 06:56 | Sereno | 23 | 23 | 100 | 1019 | 10 | S/SE 7.4 | |
| Ieri h: 05:56 | Sereno | 23 | 23 | 100 | 1018 | 10 | N 0 | |
| Ieri h: 04:56 | Sereno | 22 | 22 | 100 | 1018 | 10 | N 5.5 | |
| Ieri h: 03:56 | Sereno | 23 | 22 | 94 | 1018 | 10 | N 0 | |
| Ieri h: 02:56 | Sereno | 23 | 22 | 94 | 1017 | 10 | N 5.5 | |
| Ieri h: 01:56 | Sereno | 24 | 22 | 88 | 1018 | 10 | N 0 | |
| Ieri h: 00:56 | Sereno | 23 | 22 | 94 | 1018 | 10 | N 5.5 | |



